createdAt,value
2022-10-18T00:01:23.007Z,101875.25
2022-10-18T00:03:24.935Z,101873.44
2022-10-18T00:05:27.816Z,101874.28
2022-10-18T00:07:29.722Z,101881.41
2022-10-18T00:09:31.621Z,101877.94
2022-10-18T00:11:35.685Z,101877.34
2022-10-18T00:13:37.535Z,101888.53
2022-10-18T00:15:39.098Z,101881.41
2022-10-18T00:17:40.681Z,101879.44
2022-10-18T00:19:42.248Z,101885.66
2022-10-18T00:23:53.287Z,101894.69
2022-10-18T00:26:05.870Z,101890.19
2022-10-18T00:28:07.321Z,101898.94
2022-10-18T00:30:09.855Z,101892.97
2022-10-18T00:32:11.379Z,101894.84
2022-10-18T00:34:15.273Z,101893.63
2022-10-18T00:36:16.947Z,101896.25
2022-10-18T00:38:22.840Z,101891.25
2022-10-18T00:40:24.326Z,101894.31
2022-10-18T00:42:30.114Z,101904.41
2022-10-18T00:45:17.488Z,101894.78
2022-10-18T00:47:19.877Z,101894.69
2022-10-18T00:49:24.928Z,101903.72
2022-10-18T00:51:30.500Z,101902.13
2022-10-18T00:53:36.345Z,101905.09
2022-10-18T00:55:37.888Z,101904.03
2022-10-18T00:57:41.654Z,101896.94
2022-10-18T00:59:44.210Z,101891.84
2022-10-18T01:01:46.100Z,101899.63
2022-10-18T01:03:51.282Z,101894.25
2022-10-18T01:05:52.917Z,101895.81
2022-10-18T01:08:18.382Z,101902.66
2022-10-18T01:10:30.075Z,101907.00
2022-10-18T01:12:44.674Z,101911.13
2022-10-18T01:14:52.696Z,101913.91
2022-10-18T01:17:00.290Z,101910.44
2022-10-18T01:19:03.723Z,101924.66
2022-10-18T01:21:17.715Z,101915.84
2022-10-18T01:23:35.049Z,101919.09
2022-10-18T01:25:53.404Z,101905.84
2022-10-18T01:28:00.756Z,101900.38
2022-10-18T01:30:36.191Z,101897.22
2022-10-18T01:32:42.928Z,101890.97
2022-10-18T01:34:47.843Z,101891.66
2022-10-18T01:36:53.098Z,101890.50
2022-10-18T01:38:58.568Z,101889.56
2022-10-18T01:41:02.979Z,101885.91
2022-10-18T01:45:13.283Z,101889.56
2022-10-18T01:47:17.789Z,101892.88
2022-10-18T01:49:19.424Z,101894.06
2022-10-18T01:51:24.587Z,101895.72
2022-10-18T01:53:30.183Z,101893.81
2022-10-18T01:55:40.865Z,101903.63
2022-10-18T01:58:00.206Z,101898.25
2022-10-18T02:00:05.204Z,101894.50
2022-10-18T02:02:16.289Z,101894.22
2022-10-18T02:04:29.299Z,101896.91
2022-10-18T02:06:38.183Z,101882.09
2022-10-18T02:08:46.611Z,101885.56
2022-10-18T02:10:50.956Z,101897.78
2022-10-18T02:12:55.033Z,101898.81
2022-10-18T02:14:58.199Z,101893.53
2022-10-18T02:17:05.154Z,101895.94
2022-10-18T02:19:14.979Z,101901.13
2022-10-18T02:21:21.203Z,101896.53
2022-10-18T02:23:25.702Z,101898.53
2022-10-18T02:25:30.233Z,101894.97
2022-10-18T02:27:31.813Z,101895.56
2022-10-18T02:29:33.813Z,101896.53
2022-10-18T02:31:41.478Z,101907.19
2022-10-18T02:33:50.505Z,101908.25
2022-10-18T02:36:00.648Z,101903.53
2022-10-18T02:38:05.433Z,101908.25
2022-10-18T02:40:09.786Z,101907.38
2022-10-18T02:42:11.883Z,101919.19
2022-10-18T02:44:13.441Z,101913.06
2022-10-18T02:46:15.100Z,101914.78
2022-10-18T02:48:16.695Z,101922.75
2022-10-18T02:50:18.636Z,101917.47
2022-10-18T02:52:20.205Z,101918.91
2022-10-18T02:54:23.521Z,101916.91
2022-10-18T02:56:25.100Z,101922.47
2022-10-18T02:58:26.628Z,101926.13
2022-10-18T03:00:28.166Z,101920.06
2022-10-18T03:02:29.693Z,101925.25
2022-10-18T03:04:31.228Z,101922.47
2022-10-18T03:06:33.502Z,101919.19
2022-10-18T03:08:36.022Z,101925.53
2022-10-18T03:10:39.032Z,101936.88
2022-10-18T03:12:40.577Z,101928.63
2022-10-18T03:14:42.167Z,101941.56
2022-10-18T03:16:43.777Z,101956.66
2022-10-18T03:18:45.319Z,101949.56
2022-10-18T03:20:46.935Z,101948.13
2022-10-18T03:22:48.482Z,101944.75
2022-10-18T03:24:49.973Z,101937.06
2022-10-18T03:26:52.964Z,101937.06
2022-10-18T03:28:54.616Z,101930.91
2022-10-18T03:31:00.448Z,101927.53
2022-10-18T03:33:01.954Z,101927.13
2022-10-18T03:35:03.959Z,101934.50
2022-10-18T03:37:05.602Z,101931.72
2022-10-18T03:39:07.614Z,101924.97
2022-10-18T03:41:10.192Z,101932.38
2022-10-18T03:43:13.011Z,101925.44
2022-10-18T03:45:14.564Z,101931.78
2022-10-18T03:47:16.094Z,101937.16
2022-10-18T03:49:17.576Z,101941.13
2022-10-18T03:51:19.084Z,101941.59
2022-10-18T03:53:20.664Z,101940.25
2022-10-18T03:55:22.298Z,101940.44
2022-10-18T03:57:23.874Z,101934.00
2022-10-18T03:59:26.853Z,101935.25
2022-10-18T04:01:28.421Z,101933.41
2022-10-18T04:03:29.944Z,101931.00
2022-10-18T04:05:31.475Z,101946.19
2022-10-18T04:07:33.098Z,101944.72
2022-10-18T04:09:34.683Z,101943.09
2022-10-18T04:11:36.266Z,101937.53
2022-10-18T04:13:37.912Z,101940.97
2022-10-18T04:15:40.783Z,101941.16
2022-10-18T04:17:45.112Z,101934.06
2022-10-18T04:19:46.686Z,101932.31
2022-10-18T04:21:48.273Z,101937.78
2022-10-18T04:23:50.907Z,101943.41
2022-10-18T04:25:52.492Z,101941.50
2022-10-18T04:27:54.007Z,101937.84
2022-10-18T04:29:55.541Z,101941.16
2022-10-18T04:31:58.418Z,101938.56
2022-10-18T04:34:01.155Z,101935.97
2022-10-18T04:36:02.723Z,101929.78
2022-10-18T04:38:04.346Z,101935.44
2022-10-18T04:40:07.164Z,101937.44
2022-10-18T04:42:08.670Z,101937.25
2022-10-18T04:44:10.414Z,101937.63
2022-10-18T04:46:11.901Z,101947.31
2022-10-18T04:48:15.335Z,101943.94
2022-10-18T04:50:17.054Z,101941.84
2022-10-18T04:52:19.326Z,101939.16
2022-10-18T04:54:22.791Z,101929.38
2022-10-18T04:56:26.686Z,101938.47
2022-10-18T04:58:28.296Z,101943.78
2022-10-18T05:00:29.827Z,101942.03
2022-10-18T05:02:31.872Z,101951.75
2022-10-18T05:04:35.735Z,101934.94
2022-10-18T05:06:37.244Z,101938.75
2022-10-18T05:08:38.706Z,101931.03
2022-10-18T05:10:40.421Z,101933.69
2022-10-18T05:12:41.949Z,101925.03
2022-10-18T05:14:43.509Z,101914.97
2022-10-18T05:16:45.027Z,101908.84
2022-10-18T05:18:46.826Z,101918.38
2022-10-18T05:20:50.085Z,101921.09
2022-10-18T05:22:51.577Z,101926.63
2022-10-18T05:24:53.423Z,101929.50
2022-10-18T05:26:55.094Z,101923.00
2022-10-18T05:28:56.811Z,101930.44
2022-10-18T05:31:01.084Z,101929.78
2022-10-18T05:33:02.578Z,101926.81
2022-10-18T05:35:04.702Z,101919.78
2022-10-18T05:37:07.624Z,101922.47
2022-10-18T05:39:09.221Z,101911.22
2022-10-18T05:41:11.600Z,101920.94
2022-10-18T05:43:13.114Z,101919.97
2022-10-18T05:45:14.799Z,101924.47
2022-10-18T05:47:16.292Z,101927.00
2022-10-18T05:49:18.105Z,101931.50
2022-10-18T05:51:19.658Z,101940.59
2022-10-18T05:53:36.229Z,101947.88
2022-10-18T05:55:38.641Z,101933.22
2022-10-18T05:57:40.160Z,101937.75
2022-10-18T05:59:41.717Z,101940.44
2022-10-18T06:01:43.441Z,101935.81
2022-10-18T06:03:44.948Z,101939.66
2022-10-18T06:05:46.469Z,101934.53
2022-10-18T06:07:51.179Z,101928.75
2022-10-18T06:09:53.999Z,101923.28
2022-10-18T06:11:55.495Z,101928.66
2022-10-18T06:13:57.271Z,101925.78
2022-10-18T06:15:58.765Z,101932.38
2022-10-18T06:18:00.244Z,101918.97
2022-10-18T06:20:01.776Z,101914.44
2022-10-18T06:22:03.353Z,101914.28
2022-10-18T06:24:05.700Z,101914.34
2022-10-18T06:26:11.217Z,101909.00
2022-10-18T06:28:12.699Z,101922.69
2022-10-18T06:30:14.253Z,101918.88
2022-10-18T06:32:15.802Z,101921.56
2022-10-18T06:34:17.280Z,101919.81
2022-10-18T06:36:20.854Z,101918.69
2022-10-18T06:38:22.513Z,101911.75
2022-10-18T06:40:24.267Z,101913.50
2022-10-18T06:42:27.205Z,101916.28
2022-10-18T06:44:28.707Z,101919.13
2022-10-18T06:46:30.207Z,101925.47
2022-10-18T06:48:32.222Z,101921.72
2022-10-18T06:50:33.768Z,101926.56
2022-10-18T06:52:35.354Z,101930.66
2022-10-18T06:54:36.845Z,101923.88
2022-10-18T06:56:38.635Z,101920.06
2022-10-18T06:58:41.522Z,101924.66
2022-10-18T07:00:43.130Z,101927.53
2022-10-18T07:02:44.650Z,101929.25
2022-10-18T07:04:46.168Z,101925.78
2022-10-18T07:06:48.094Z,101935.50
2022-10-18T07:08:51.408Z,101943.47
2022-10-18T07:10:53.476Z,101932.56
2022-10-18T07:13:08.047Z,101944.53
2022-10-18T07:15:18.811Z,101950.41
2022-10-18T07:17:20.434Z,101961.41
2022-10-18T07:19:21.972Z,101964.00
2022-10-18T07:21:25.096Z,101963.66
2022-10-18T07:23:26.694Z,101965.41
2022-10-18T07:25:29.909Z,101971.38
2022-10-18T07:27:36.477Z,101973.13
2022-10-18T07:29:38.125Z,101975.53
2022-10-18T07:31:41.143Z,101981.44
2022-10-18T07:33:42.748Z,101976.84
2022-10-18T07:35:44.272Z,101991.81
2022-10-18T07:37:45.881Z,101990.09
2022-10-18T07:39:47.399Z,101993.56
2022-10-18T07:41:48.964Z,101995.47
2022-10-18T07:43:51.970Z,101998.75
2022-10-18T07:45:53.724Z,101992.59
2022-10-18T07:47:57.019Z,101997.97
2022-10-18T07:49:58.530Z,101993.38
2022-10-18T07:52:00.078Z,101993.22
2022-10-18T07:54:04.216Z,101994.59
2022-10-18T07:56:09.565Z,101994.41
2022-10-18T07:58:11.858Z,101984.19
2022-10-18T08:00:14.000Z,101988.88
2022-10-18T08:02:15.812Z,101988.00
2022-10-18T08:04:18.826Z,101974.81
2022-10-18T08:06:21.924Z,101981.94
2022-10-18T08:08:24.687Z,101982.88
2022-10-18T08:10:26.241Z,101978.19
2022-10-18T08:12:27.709Z,101981.16
2022-10-18T08:14:29.404Z,101976.72
2022-10-18T08:18:38.412Z,101978.28
2022-10-18T08:20:44.817Z,101975.69
2022-10-18T08:22:50.198Z,101979.25
2022-10-18T08:24:51.709Z,101978.47
2022-10-18T08:26:53.294Z,101969.44
2022-10-18T08:29:10.378Z,101980.88
2022-10-18T08:31:18.356Z,101976.38
2022-10-18T08:33:19.920Z,101980.97
2022-10-18T08:35:21.468Z,101971.72
2022-10-18T08:37:24.474Z,101981.69
2022-10-18T08:39:26.129Z,101985.94
2022-10-18T08:41:58.531Z,101977.53
2022-10-18T08:44:07.778Z,101979.69
2022-10-18T08:46:12.634Z,101980.81
2022-10-18T08:48:21.032Z,101982.66
2022-10-18T08:50:25.842Z,101974.84
2022-10-18T08:52:34.463Z,101983.00
2022-10-18T08:54:39.480Z,101978.56
2022-10-18T08:56:45.304Z,101981.44
2022-10-18T08:58:47.243Z,101977.19
2022-10-18T09:00:58.534Z,101977.09
2022-10-18T09:03:19.225Z,101977.78
2022-10-18T09:05:28.012Z,101973.47
2022-10-18T09:07:53.937Z,101973.47
2022-10-18T09:10:01.488Z,101967.03
2022-10-18T09:12:16.845Z,101972.69
2022-10-18T09:14:38.347Z,101977.44
2022-10-18T09:16:46.908Z,101985.66
2022-10-18T09:18:58.317Z,101978.56
2022-10-18T09:21:05.282Z,101980.31
2022-10-18T09:23:16.286Z,101983.84
2022-10-18T09:25:21.165Z,101978.41
2022-10-18T09:27:34.838Z,101979.97
2022-10-18T09:29:48.970Z,101974.06
2022-10-18T09:31:55.850Z,101978.06
2022-10-18T09:34:00.785Z,101968.94
2022-10-18T09:36:05.042Z,101970.16
2022-10-18T09:38:13.352Z,101976.56
2022-10-18T09:40:19.335Z,101978.41
2022-10-18T09:42:24.526Z,101981.50
2022-10-18T09:44:30.154Z,101984.13
2022-10-18T09:46:37.148Z,101981.44
2022-10-18T09:48:45.265Z,101981.78
2022-10-18T09:50:51.833Z,101974.50
2022-10-18T09:53:03.270Z,101979.09
2022-10-18T09:55:15.390Z,101970.84
2022-10-18T09:57:23.471Z,101975.28
2022-10-18T09:59:33.829Z,101992.19
2022-10-18T10:01:35.780Z,101985.34
2022-10-18T10:03:37.538Z,101983.78
2022-10-18T10:05:39.113Z,101982.66
2022-10-18T10:07:43.557Z,101979.88
2022-10-18T10:09:47.419Z,101982.66
2022-10-18T10:11:51.954Z,101985.25
2022-10-18T10:13:57.895Z,101986.63
2022-10-18T10:16:02.575Z,101987.56
2022-10-18T10:18:07.195Z,101989.13
2022-10-18T10:20:17.879Z,101988.38
2022-10-18T10:22:27.689Z,101983.94
2022-10-18T10:24:46.656Z,101996.75
2022-10-18T10:26:48.309Z,101992.25
2022-10-18T10:28:51.550Z,101979.59
2022-10-18T10:30:53.503Z,101982.28
2022-10-18T10:32:55.849Z,101972.66
2022-10-18T10:34:58.293Z,101976.91
2022-10-18T10:36:59.812Z,101967.66
2022-10-18T10:39:06.489Z,101967.03
2022-10-18T10:41:20.104Z,101960.72
2022-10-18T10:43:40.766Z,101962.09
2022-10-18T10:45:58.309Z,101958.56
2022-10-18T10:48:06.746Z,101957.69
2022-10-18T10:50:11.779Z,101953.34
2022-10-18T10:52:27.738Z,101957.00
2022-10-18T10:54:31.532Z,101947.81
2022-10-18T10:56:35.815Z,101945.91
2022-10-18T10:58:39.851Z,101930.31
2022-10-18T11:00:44.678Z,101933.34
2022-10-18T11:02:59.189Z,101922.50
2022-10-18T11:05:22.645Z,101928.91
2022-10-18T11:07:29.860Z,101926.53
2022-10-18T11:09:44.186Z,101934.09
2022-10-18T11:11:59.532Z,101938.59
2022-10-18T11:14:26.217Z,101933.75
2022-10-18T11:16:36.658Z,101932.78
2022-10-18T11:18:38.478Z,101935.47
2022-10-18T11:20:43.536Z,101930.88
2022-10-18T11:22:53.927Z,101933.47
2022-10-18T11:24:55.638Z,101931.66
2022-10-18T11:27:01.776Z,101931.16
2022-10-18T11:29:29.719Z,101935.47
2022-10-18T11:31:41.350Z,101943.16
2022-10-18T11:34:10.157Z,101942.22
2022-10-18T11:36:18.285Z,101938.22
2022-10-18T11:38:31.180Z,101929.72
2022-10-18T11:40:53.801Z,101919.47
2022-10-18T11:43:05.535Z,101926.84
2022-10-18T11:45:22.212Z,101917.94
2022-10-18T11:47:36.549Z,101924.84
2022-10-18T11:49:56.143Z,101928.59
2022-10-18T11:52:09.046Z,101922.16
2022-10-18T11:54:24.469Z,101919.28
2022-10-18T11:56:32.560Z,101928.31
2022-10-18T11:58:46.515Z,101917.38
2022-10-18T12:00:50.293Z,101915.28
2022-10-18T12:03:08.075Z,101916.44
2022-10-18T12:05:23.250Z,101909.34
2022-10-18T12:07:32.496Z,101912.66
2022-10-18T12:09:37.736Z,101912.47
2022-10-18T12:11:47.116Z,101904.78
2022-10-18T12:13:52.384Z,101904.69
2022-10-18T12:15:55.469Z,101901.53
2022-10-18T12:18:03.219Z,101900.56
2022-10-18T12:20:11.270Z,101913.34
2022-10-18T12:22:18.246Z,101915.09
2022-10-18T12:24:23.619Z,101904.34
2022-10-18T12:26:27.298Z,101897.09
2022-10-18T12:28:38.457Z,101909.72
2022-10-18T12:30:46.971Z,101901.38
2022-10-18T12:33:03.528Z,101900.50
2022-10-18T12:35:16.302Z,101898.41
2022-10-18T12:37:48.630Z,101902.91
2022-10-18T12:40:11.424Z,101901.28
2022-10-18T12:42:20.448Z,101896.84
2022-10-18T12:44:28.699Z,101896.66
2022-10-18T12:46:45.545Z,101888.00
2022-10-18T12:49:03.771Z,101880.72
2022-10-18T12:51:14.334Z,101890.13
2022-10-18T12:53:19.124Z,101896.53
2022-10-18T12:55:32.038Z,101888.88
2022-10-18T12:58:04.066Z,101890.31
2022-10-18T13:00:27.053Z,101889.22
2022-10-18T13:02:31.500Z,101881.50
2022-10-18T13:04:34.600Z,101889.94
2022-10-18T13:07:17.536Z,101890.69
2022-10-18T13:09:21.363Z,101893.97
2022-10-18T13:11:35.984Z,101886.53
2022-10-18T13:14:02.712Z,101890.44
2022-10-18T13:16:12.580Z,101893.72
2022-10-18T13:18:24.450Z,101889.31
2022-10-18T13:20:37.187Z,101895.47
2022-10-18T13:22:56.036Z,101891.34
2022-10-18T13:25:03.832Z,101889.75
2022-10-18T13:27:42.481Z,101888.38
2022-10-18T13:30:02.495Z,101894.53
2022-10-18T13:34:25.936Z,101896.66
2022-10-18T13:36:32.686Z,101888.53
2022-10-18T13:38:43.976Z,101895.47
2022-10-18T13:40:45.526Z,101893.16
2022-10-18T13:42:47.249Z,101887.09
2022-10-18T13:44:48.771Z,101886.34
2022-10-18T13:47:12.830Z,101885.88
2022-10-18T13:49:31.558Z,101887.88
2022-10-18T13:51:49.120Z,101885.78
2022-10-18T13:54:03.370Z,101893.16
2022-10-18T13:56:18.969Z,101888.06
2022-10-18T13:58:30.692Z,101897.09
2022-10-18T14:00:59.097Z,101894.78
2022-10-18T14:03:44.118Z,101895.28
2022-10-18T14:05:50.617Z,101904.41
2022-10-18T14:07:59.987Z,101900.94
2022-10-18T14:10:05.066Z,101904.91
2022-10-18T14:12:17.116Z,101911.06
2022-10-18T14:14:25.136Z,101902.84
2022-10-18T14:16:39.575Z,101914.19
2022-10-18T14:18:44.152Z,101911.91
2022-10-18T14:21:12.205Z,101904.03
2022-10-18T14:23:17.521Z,101908.06
2022-10-18T14:25:27.668Z,101914.13
2022-10-18T14:27:31.001Z,101919.31
2022-10-18T14:29:33.179Z,101927.47
2022-10-18T14:31:35.155Z,101928.44
2022-10-18T14:33:39.529Z,101916.31
2022-10-18T14:35:41.380Z,101924.31
2022-10-18T14:37:43.861Z,101924.97
2022-10-18T14:39:46.564Z,101929.59
2022-10-18T14:41:52.219Z,101937.28
2022-10-18T14:44:16.621Z,101931.91
2022-10-18T14:46:21.571Z,101920.22
2022-10-18T14:48:24.167Z,101925.59
2022-10-18T14:50:30.624Z,101916.75
2022-10-18T14:52:35.590Z,101928.75
2022-10-18T14:54:38.318Z,101933.16
2022-10-18T14:56:41.216Z,101919.97
2022-10-18T14:58:44.534Z,101927.66
2022-10-18T15:00:48.573Z,101918.59
2022-10-18T15:02:50.955Z,101923.72
2022-10-18T15:04:58.046Z,101926.50
2022-10-18T15:07:01.393Z,101919.38
2022-10-18T15:09:05.544Z,101929.47
2022-10-18T15:11:11.865Z,101919.91
2022-10-18T15:13:25.068Z,101923.16
2022-10-18T15:15:33.262Z,101925.44
2022-10-18T15:17:35.688Z,101916.34
2022-10-18T15:19:38.862Z,101914.97
2022-10-18T15:21:51.812Z,101925.41
2022-10-18T15:23:55.606Z,101924.53
2022-10-18T15:26:01.855Z,101915.22
2022-10-18T15:28:03.852Z,101929.06
2022-10-18T15:30:07.152Z,101932.13
2022-10-18T15:32:18.142Z,101928.47
2022-10-18T15:34:23.974Z,101930.13
2022-10-18T15:36:28.953Z,101931.19
2022-10-18T15:38:31.916Z,101931.53
2022-10-18T15:40:38.763Z,101933.09
2022-10-18T15:42:40.495Z,101927.13
2022-10-18T15:44:48.688Z,101924.88
2022-10-18T15:46:52.537Z,101926.09
2022-10-18T15:49:18.931Z,101921.06
2022-10-18T15:51:47.030Z,101929.72
2022-10-18T15:53:53.490Z,101923.47
2022-10-18T15:55:58.245Z,101925.38
2022-10-18T15:58:03.464Z,101926.41
2022-10-18T16:00:08.208Z,101926.13
2022-10-18T16:02:13.507Z,101925.50
2022-10-18T16:04:20.778Z,101944.91
2022-10-18T16:06:23.219Z,101937.00
2022-10-18T16:08:26.719Z,101935.44
2022-10-18T16:10:28.919Z,101945.56
2022-10-18T16:12:30.673Z,101941.31
2022-10-18T16:14:32.737Z,101937.06
2022-10-18T16:16:34.770Z,101926.31
2022-10-18T16:18:36.536Z,101923.16
2022-10-18T16:20:39.683Z,101932.63
2022-10-18T16:22:41.760Z,101931.06
2022-10-18T16:24:43.732Z,101940.28
2022-10-18T16:26:45.854Z,101942.34
2022-10-18T16:28:48.939Z,101949.50
2022-10-18T16:30:56.749Z,101942.25
2022-10-18T16:32:58.713Z,101947.63
2022-10-18T16:35:00.549Z,101947.16
2022-10-18T16:37:03.778Z,101953.44
2022-10-18T16:39:07.315Z,101960.03
2022-10-18T16:41:09.862Z,101962.94
2022-10-18T16:43:11.616Z,101959.88
2022-10-18T16:45:13.296Z,101964.44
2022-10-18T16:47:15.114Z,101958.28
2022-10-18T16:49:23.008Z,101965.38
2022-10-18T16:51:25.610Z,101967.13
2022-10-18T16:53:29.201Z,101968.84
2022-10-18T16:55:30.980Z,101964.19
2022-10-18T16:57:32.497Z,101966.97
2022-10-18T16:59:34.233Z,101960.50
2022-10-18T17:01:35.772Z,101973.03
2022-10-18T17:03:37.534Z,101961.91
2022-10-18T17:05:39.173Z,101957.56
2022-10-18T17:07:40.723Z,101965.84
2022-10-18T17:09:43.674Z,101974.66
2022-10-18T17:11:45.182Z,101969.56
2022-10-18T17:13:47.091Z,101971.47
2022-10-18T17:15:49.287Z,101969.09
2022-10-18T17:17:51.032Z,101969.16
2022-10-18T17:19:52.497Z,101969.47
2022-10-18T17:21:54.816Z,101972.06
2022-10-18T17:23:58.552Z,101971.34
2022-10-18T17:26:07.199Z,101963.53
2022-10-18T17:28:13.540Z,101968.88
2022-10-18T17:30:15.178Z,101981.03
2022-10-18T17:32:16.639Z,101977.16
2022-10-18T17:34:21.150Z,101981.97
2022-10-18T17:36:23.104Z,101977.56
2022-10-18T17:38:24.653Z,101976.28
2022-10-18T17:40:26.221Z,101971.22
2022-10-18T17:42:29.087Z,101966.88
2022-10-18T17:44:30.605Z,101978.75
2022-10-18T17:46:32.104Z,101977.00
2022-10-18T17:48:34.046Z,101982.66
2022-10-18T17:50:35.660Z,101977.44
2022-10-18T17:54:48.012Z,101978.31
2022-10-18T17:56:52.359Z,101981.72
2022-10-18T17:58:57.365Z,101980.19
2022-10-18T18:01:08.673Z,101988.44
2022-10-18T18:03:10.207Z,101988.38
2022-10-18T18:05:11.760Z,101984.81
2022-10-18T18:07:16.063Z,101989.38
2022-10-18T18:09:17.617Z,101981.50
2022-10-18T18:11:20.683Z,101986.19
2022-10-18T18:13:22.368Z,101990.75
2022-10-18T18:15:25.271Z,101984.84
2022-10-18T18:17:34.125Z,101983.09
2022-10-18T18:19:36.564Z,101987.00
2022-10-18T18:21:39.290Z,101995.16
2022-10-18T18:23:40.813Z,101995.16
2022-10-18T18:25:42.291Z,101998.72
2022-10-18T18:27:43.855Z,101993.28
2022-10-18T18:29:45.302Z,101996.97
2022-10-18T18:31:49.224Z,102002.53
2022-10-18T18:33:51.861Z,102010.72
2022-10-18T18:35:57.248Z,102004.38
2022-10-18T18:38:00.268Z,102007.75
2022-10-18T18:40:01.856Z,102010.72
2022-10-18T18:42:03.657Z,102002.75
2022-10-18T18:44:05.833Z,102010.00
2022-10-18T18:46:08.435Z,102006.25
2022-10-18T18:48:12.097Z,102011.72
2022-10-18T18:50:16.066Z,102010.13
2022-10-18T18:52:17.726Z,102002.66
2022-10-18T18:54:19.263Z,102005.19
2022-10-18T18:56:23.113Z,102004.19
2022-10-18T18:58:27.462Z,102007.25
2022-10-18T19:00:30.904Z,102010.41
2022-10-18T19:02:32.512Z,102006.19
2022-10-18T19:04:37.290Z,101999.25
2022-10-18T19:06:40.841Z,102003.97
2022-10-18T19:08:43.491Z,102006.53
2022-10-18T19:10:45.066Z,102005.59
2022-10-18T19:12:47.735Z,102004.66
2022-10-18T19:14:49.378Z,102010.81
2022-10-18T19:16:51.695Z,102012.81
2022-10-18T19:18:58.118Z,102011.19
2022-10-18T19:21:01.051Z,102008.31
2022-10-18T19:23:02.588Z,102006.50
2022-10-18T19:25:07.379Z,102007.06
2022-10-18T19:27:10.203Z,102011.47
2022-10-18T19:29:13.826Z,102020.03
2022-10-18T19:31:15.728Z,102023.09
2022-10-18T19:33:17.236Z,102016.28
2022-10-18T19:35:18.732Z,102015.47
2022-10-18T19:37:21.669Z,102023.50
2022-10-18T19:39:25.771Z,102017.41
2022-10-18T19:41:27.597Z,102021.03
2022-10-18T19:43:29.129Z,102027.78
2022-10-18T19:45:30.666Z,102025.03
2022-10-18T19:47:32.148Z,102024.50
2022-10-18T19:49:33.668Z,102027.19
2022-10-18T19:51:35.498Z,102032.44
2022-10-18T19:53:38.550Z,102026.25
2022-10-18T19:55:40.032Z,102029.00
2022-10-18T19:57:41.853Z,102033.84
2022-10-18T19:59:43.353Z,102037.84
2022-10-18T20:01:45.236Z,102047.59
2022-10-18T20:03:46.970Z,102036.84
2022-10-18T20:05:54.558Z,102046.53
2022-10-18T20:07:56.110Z,102050.00
2022-10-18T20:09:59.004Z,102044.53
2022-10-18T20:12:00.486Z,102045.88
2022-10-18T20:14:02.320Z,102051.13
2022-10-18T20:16:04.962Z,102047.88
2022-10-18T20:18:06.446Z,102051.38
2022-10-18T20:20:09.061Z,102062.06
2022-10-18T20:22:10.540Z,102059.25
2022-10-18T20:24:12.059Z,102059.38
2022-10-18T20:26:18.282Z,102058.81
2022-10-18T20:28:21.905Z,102069.63
2022-10-18T20:30:23.419Z,102064.59
2022-10-18T20:32:24.893Z,102068.16
2022-10-18T20:34:26.618Z,102069.22
2022-10-18T20:36:29.100Z,102072.00
2022-10-18T20:38:31.698Z,102061.44
2022-10-18T20:40:33.234Z,102063.06
2022-10-18T20:42:36.499Z,102067.66
2022-10-18T20:44:38.033Z,102068.22
2022-10-18T20:46:40.157Z,102072.50
2022-10-18T20:48:41.657Z,102074.41
2022-10-18T20:50:43.149Z,102073.72
2022-10-18T20:52:44.656Z,102065.03
2022-10-18T20:54:46.172Z,102070.31
2022-10-18T20:56:47.969Z,102069.38
2022-10-18T20:58:53.762Z,102067.75
2022-10-18T21:00:55.461Z,102071.19
2022-10-18T21:02:57.882Z,102067.88
2022-10-18T21:04:59.618Z,102073.72
2022-10-18T21:07:03.014Z,102063.91
2022-10-18T21:09:06.258Z,102066.19
2022-10-18T21:11:08.656Z,102065.72
2022-10-18T21:13:10.179Z,102055.69
2022-10-18T21:15:13.167Z,102058.13
2022-10-18T21:17:14.667Z,102055.69
2022-10-18T21:19:18.163Z,102052.41
2022-10-18T21:21:22.114Z,102051.91
2022-10-18T21:23:23.744Z,102057.50
2022-10-18T21:25:25.245Z,102064.06
2022-10-18T21:27:26.748Z,102068.41
2022-10-18T21:29:28.385Z,102069.91
2022-10-18T21:31:32.927Z,102065.50
2022-10-18T21:33:34.441Z,102062.13
2022-10-18T21:35:36.402Z,102071.19
2022-10-18T21:37:37.955Z,102058.06
2022-10-18T21:39:39.438Z,102055.41
2022-10-18T21:41:40.973Z,102055.41
2022-10-18T21:43:44.037Z,102048.44
2022-10-18T21:45:45.533Z,102059.72
2022-10-18T21:47:48.446Z,102053.66
2022-10-18T21:49:49.935Z,102055.41
2022-10-18T21:51:51.722Z,102048.22
2022-10-18T21:53:55.146Z,102043.88
2022-10-18T21:55:56.845Z,102056.28
2022-10-18T21:57:58.424Z,102048.22
2022-10-18T22:00:00.133Z,102056.56
2022-10-18T22:02:01.640Z,102054.78
2022-10-18T22:04:06.989Z,102056.63
2022-10-18T22:06:10.783Z,102063.09
2022-10-18T22:08:12.262Z,102069.38
2022-10-18T22:10:13.786Z,102058.59
2022-10-18T22:12:15.273Z,102065.00
2022-10-18T22:14:19.213Z,102066.66
2022-10-18T22:16:21.323Z,102059.69
2022-10-18T22:18:22.917Z,102061.75
2022-10-18T22:20:25.926Z,102061.00
2022-10-18T22:22:27.440Z,102048.06
2022-10-18T22:24:29.083Z,102053.06
2022-10-18T22:26:33.611Z,102055.09
2022-10-18T22:28:35.722Z,102044.44
2022-10-18T22:30:37.324Z,102035.53
2022-10-18T22:32:38.925Z,102042.69
2022-10-18T22:34:40.575Z,102046.28
2022-10-18T22:36:43.678Z,102035.84
2022-10-18T22:38:45.202Z,102033.47
2022-10-18T22:40:46.757Z,102044.34
2022-10-18T22:42:48.389Z,102031.72
2022-10-18T22:44:49.861Z,102043.31
2022-10-18T22:46:51.361Z,102028.34
2022-10-18T22:48:52.888Z,102039.50
2022-10-18T22:50:54.486Z,102020.84
2022-10-18T22:52:57.288Z,102033.13
2022-10-18T22:54:58.789Z,102020.72
2022-10-18T22:57:00.282Z,102027.91
2022-10-18T22:59:01.854Z,102029.31
2022-10-18T23:01:05.758Z,102017.00
2022-10-18T23:03:07.266Z,102025.13
2022-10-18T23:05:09.261Z,102019.00
2022-10-18T23:07:10.799Z,102015.50
2022-10-18T23:09:13.638Z,102025.25
2022-10-18T23:11:15.153Z,102010.41
2022-10-18T23:13:16.701Z,102022.19
2022-10-18T23:15:18.419Z,102021.31
2022-10-18T23:17:19.911Z,102013.00
2022-10-18T23:19:21.496Z,102005.06
2022-10-18T23:21:24.251Z,102012.25
2022-10-18T23:23:25.922Z,102017.16
2022-10-18T23:25:28.836Z,102027.41
2022-10-18T23:27:30.466Z,102022.75
2022-10-18T23:29:31.968Z,102008.59
2022-10-18T23:31:33.985Z,102006.91
2022-10-18T23:33:35.863Z,102017.84
2022-10-18T23:35:37.340Z,102015.63
2022-10-18T23:37:38.872Z,102021.53
2022-10-18T23:39:40.365Z,102027.56
2022-10-18T23:41:43.233Z,102024.44
2022-10-18T23:43:45.637Z,102025.41
2022-10-18T23:47:53.599Z,102024.03
2022-10-18T23:49:55.107Z,102022.69
2022-10-18T23:51:56.587Z,102019.03
2022-10-18T23:53:58.081Z,102023.56
2022-10-18T23:56:01.576Z,102015.69
2022-10-18T23:58:04.419Z,102014.47
